Time,TemperatureF,DewpointF,PressureIn,WindDirection,WindDirectionDegrees,WindSpeedMPH,WindSpeedGustMPH,Humidity,HourlyPrecipIn,Conditions,Clouds,dailyrainin,SolarRadiationWatts/m^2,SoftwareType,DateUTC
2013-02-23 00:00:00,26.5,24.2,30.11,West,264,0.0,0.0,91,0.00,RA,,0.00,0.0,WeatherDisplay:10.37,2013-02-23 06:00:00,
2013-02-23 00:05:00,26.2,23.9,30.11,West,264,0.0,0.0,91,0.00,RA,,0.00,0.0,WeatherDisplay:10.37,2013-02-23 06:05:00,
2013-02-23 00:10:00,26.1,23.8,30.11,West,264,0.0,0.0,91,0.00,CLR,,0.00,0.0,WeatherDisplay:10.37,2013-02-23 06:10:00,
2013-02-23 00:15:00,25.8,23.5,30.11,West,264,0.0,0.0,91,0.00,CLR,,0.00,0.0,WeatherDisplay:10.37,2013-02-23 06:15:00,
2013-02-23 00:21:00,25.7,23.4,30.11,West,264,0.0,0.0,91,0.00,CLR,,0.00,0.0,WeatherDisplay:10.37,2013-02-23 06:21:00,
2013-02-23 00:26:00,25.7,23.4,30.11,West,264,0.0,0.0,91,0.00,CLR,,0.00,0.0,WeatherDisplay:10.37,2013-02-23 06:26:00,
2013-02-23 00:31:00,25.6,23.3,30.11,West,264,0.0,0.0,91,0.00,CLR,,0.00,0.0,WeatherDisplay:10.37,2013-02-23 06:31:00,
2013-02-23 00:36:00,25.5,23.2,30.11,West,264,0.0,0.0,91,0.00,CLR,,0.00,0.0,WeatherDisplay:10.37,2013-02-23 06:36:00,
2013-02-23 00:41:00,25.4,23.1,30.12,West,264,0.0,0.0,91,0.00,CLR,,0.00,0.0,WeatherDisplay:10.37,2013-02-23 06:41:00,
2013-02-23 00:46:00,25.4,23.1,30.11,West,264,0.0,0.0,91,0.00,CLR,,0.00,0.0,WeatherDisplay:10.37,2013-02-23 06:46:00,
2013-02-23 00:51:00,25.4,23.1,30.11,West,264,0.0,0.0,91,0.00,CLR,,0.00,0.0,WeatherDisplay:10.37,2013-02-23 06:51:00,
2013-02-23 00:56:00,25.5,23.2,30.11,West,264,0.0,0.0,91,0.00,CLR,,0.00,0.0,WeatherDisplay:10.37,2013-02-23 06:56:00,
2013-02-23 01:01:00,25.5,23.2,30.11,West,264,0.0,0.0,91,0.00,CLR,,0.00,0.0,WeatherDisplay:10.37,2013-02-23 07:01:00,
2013-02-23 01:06:00,25.5,23.2,30.11,West,264,0.0,0.0,91,0.00,CLR,,0.00,0.0,WeatherDisplay:10.37,2013-02-23 07:06:00,
2013-02-23 01:11:00,25.3,23.0,30.11,West,264,0.0,0.0,91,0.00,CLR,,0.00,0.0,WeatherDisplay:10.37,2013-02-23 07:11:00,
2013-02-23 01:16:00,25.2,22.9,30.11,West,264,0.0,0.0,91,0.00,CLR,,0.00,0.0,WeatherDisplay:10.37,2013-02-23 07:16:00,
2013-02-23 01:21:00,25.1,22.8,30.11,West,264,0.0,0.0,91,0.00,CLR,,0.00,0.0,WeatherDisplay:10.37,2013-02-23 07:21:00,
2013-02-23 01:26:00,25.0,22.7,30.10,West,264,0.0,0.0,91,0.00,CLR,,0.00,0.0,WeatherDisplay:10.37,2013-02-23 07:26:00,
2013-02-23 01:31:00,24.9,22.6,30.10,West,264,0.0,0.0,91,0.00,CLR,,0.00,0.0,WeatherDisplay:10.37,2013-02-23 07:31:00,
2013-02-23 01:36:00,25.0,22.7,30.10,West,264,0.0,0.0,91,0.00,CLR,,0.00,0.0,WeatherDisplay:10.37,2013-02-23 07:36:00,
2013-02-23 01:41:00,24.7,22.4,30.10,West,264,0.0,0.0,91,0.00,CLR,,0.00,0.0,WeatherDisplay:10.37,2013-02-23 07:41:00,
2013-02-23 01:46:00,24.6,22.3,30.11,West,264,0.0,0.0,91,0.00,CLR,,0.00,0.0,WeatherDisplay:10.37,2013-02-23 07:46:00,
2013-02-23 01:51:00,24.6,22.3,30.10,West,264,0.0,0.0,91,0.00,CLR,,0.00,0.0,WeatherDisplay:10.37,2013-02-23 07:51:00,
2013-02-23 01:56:00,24.7,22.4,30.10,West,264,0.0,0.0,91,0.00,CLR,,0.00,0.0,WeatherDisplay:10.37,2013-02-23 07:56:00,
2013-02-23 02:01:00,24.7,22.4,30.10,West,264,0.0,0.0,91,0.00,CLR,,0.00,0.0,WeatherDisplay:10.37,2013-02-23 08:01:00,
2013-02-23 02:06:00,24.5,22.2,30.09,West,264,0.0,0.0,91,0.00,CLR,,0.00,0.0,WeatherDisplay:10.37,2013-02-23 08:06:00,
2013-02-23 02:11:00,24.4,22.2,30.09,West,264,0.0,0.0,91,0.00,CLR,,0.00,0.0,WeatherDisplay:10.37,2013-02-23 08:11:00,
2013-02-23 02:16:00,24.3,22.1,30.09,West,264,0.0,0.0,91,0.00,CLR,,0.00,0.0,WeatherDisplay:10.37,2013-02-23 08:16:00,
2013-02-23 02:21:00,24.3,22.1,30.08,West,264,0.0,0.0,91,0.00,CLR,,0.00,0.0,WeatherDisplay:10.37,2013-02-23 08:21:00,
2013-02-23 02:26:00,24.3,22.1,30.08,West,264,0.0,0.0,91,0.00,CLR,,0.00,0.0,WeatherDisplay:10.37,2013-02-23 08:26:00,
2013-02-23 02:31:00,24.2,22.0,30.08,West,264,0.0,0.0,91,0.00,CLR,,0.00,0.0,WeatherDisplay:10.37,2013-02-23 08:31:00,
2013-02-23 02:36:00,24.2,22.0,30.08,West,264,0.0,0.0,91,0.00,CLR,,0.00,0.0,WeatherDisplay:10.37,2013-02-23 08:36:00,
2013-02-23 02:41:00,24.0,21.8,30.08,West,264,0.0,0.0,91,0.00,CLR,,0.00,0.0,WeatherDisplay:10.37,2013-02-23 08:41:00,
2013-02-23 02:46:00,24.0,21.8,30.07,West,264,0.0,0.0,91,0.00,CLR,,0.00,0.0,WeatherDisplay:10.37,2013-02-23 08:46:00,
2013-02-23 02:51:00,24.0,21.8,30.07,West,264,0.0,0.0,91,0.00,CLR,,0.00,0.0,WeatherDisplay:10.37,2013-02-23 08:51:00,
2013-02-23 02:56:00,23.9,21.7,30.07,West,264,0.0,0.0,91,0.00,CLR,,0.00,0.0,WeatherDisplay:10.37,2013-02-23 08:56:00,
2013-02-23 03:01:00,23.9,21.7,30.07,West,264,0.0,0.0,91,0.00,CLR,,0.00,0.0,WeatherDisplay:10.37,2013-02-23 09:01:00,
2013-02-23 03:06:00,23.8,21.6,30.06,West,264,0.0,0.0,91,0.00,CLR,,0.00,0.0,WeatherDisplay:10.37,2013-02-23 09:06:00,
2013-02-23 03:11:00,23.8,21.6,30.06,West,264,0.0,0.0,91,0.00,CLR,,0.00,0.0,WeatherDisplay:10.37,2013-02-23 09:11:00,
2013-02-23 03:16:00,23.7,21.5,30.06,West,264,0.0,0.0,91,0.00,CLR,,0.00,0.0,WeatherDisplay:10.37,2013-02-23 09:16:00,
2013-02-23 03:21:00,23.7,21.5,30.07,West,264,0.0,0.0,91,0.00,CLR,,0.00,0.0,WeatherDisplay:10.37,2013-02-23 09:21:00,
2013-02-23 03:26:00,23.7,21.5,30.07,West,264,0.0,0.0,91,0.00,CLR,,0.00,0.0,WeatherDisplay:10.37,2013-02-23 09:26:00,
2013-02-23 03:31:00,23.5,21.3,30.06,West,264,0.0,0.0,91,0.00,CLR,,0.00,0.0,WeatherDisplay:10.37,2013-02-23 09:31:00,
2013-02-23 03:36:00,23.5,21.3,30.06,West,264,0.0,0.0,91,0.00,CLR,,0.00,0.0,WeatherDisplay:10.37,2013-02-23 09:36:00,
2013-02-23 03:41:00,23.4,21.2,30.06,West,264,0.0,0.0,91,0.00,CLR,,0.00,0.0,WeatherDisplay:10.37,2013-02-23 09:41:00,
2013-02-23 03:46:00,23.3,21.1,30.06,West,264,0.0,0.0,91,0.00,CLR,,0.00,0.0,WeatherDisplay:10.37,2013-02-23 09:46:00,
2013-02-23 03:51:00,23.2,21.0,30.06,West,264,0.0,0.0,91,0.00,CLR,,0.00,0.0,WeatherDisplay:10.37,2013-02-23 09:51:00,
2013-02-23 03:56:00,23.2,21.0,30.06,West,264,0.0,0.0,91,0.00,CLR,,0.00,0.0,WeatherDisplay:10.37,2013-02-23 09:56:00,
2013-02-23 04:01:00,23.2,21.0,30.06,West,264,0.0,0.0,91,0.00,CLR,,0.00,0.0,WeatherDisplay:10.37,2013-02-23 10:01:00,
2013-02-23 04:06:00,23.1,20.9,30.06,West,264,0.0,0.0,91,0.00,CLR,,0.00,0.0,WeatherDisplay:10.37,2013-02-23 10:06:00,
2013-02-23 04:11:00,23.1,20.9,30.06,West,264,0.0,0.0,91,0.00,CLR,,0.00,0.0,WeatherDisplay:10.37,2013-02-23 10:11:00,
2013-02-23 04:16:00,23.0,20.8,30.06,West,264,0.0,0.0,91,0.00,CLR,,0.00,0.0,WeatherDisplay:10.37,2013-02-23 10:16:00,
2013-02-23 04:21:00,23.0,20.8,30.06,West,264,0.0,0.0,91,0.00,CLR,,0.00,0.0,WeatherDisplay:10.37,2013-02-23 10:21:00,
2013-02-23 04:26:00,23.0,20.8,30.06,West,264,0.0,0.0,91,0.00,CLR,,0.00,0.0,WeatherDisplay:10.37,2013-02-23 10:26:00,
2013-02-23 04:31:00,23.1,20.9,30.06,West,264,0.0,0.0,91,0.00,CLR,,0.00,0.0,WeatherDisplay:10.37,2013-02-23 10:31:00,
2013-02-23 04:36:00,23.2,21.0,30.06,West,264,0.0,0.0,91,0.00,CLR,,0.00,0.0,WeatherDisplay:10.37,2013-02-23 10:36:00,
2013-02-23 04:41:00,23.1,20.9,30.06,West,264,0.0,0.0,91,0.00,CLR,,0.00,0.0,WeatherDisplay:10.37,2013-02-23 10:41:00,
2013-02-23 04:46:00,23.0,20.8,30.06,West,264,0.0,0.0,91,0.00,CLR,,0.00,0.0,WeatherDisplay:10.37,2013-02-23 10:46:00,
2013-02-23 04:51:00,23.0,20.8,30.06,West,264,0.0,0.0,91,0.00,CLR,,0.00,0.0,WeatherDisplay:10.37,2013-02-23 10:51:00,
2013-02-23 04:56:00,22.9,20.7,30.06,West,264,0.0,0.0,91,0.00,CLR,,0.00,0.0,WeatherDisplay:10.37,2013-02-23 10:56:00,
2013-02-23 05:01:00,22.8,20.6,30.06,West,264,0.0,0.0,91,0.00,CLR,,0.00,0.0,WeatherDisplay:10.37,2013-02-23 11:01:00,
2013-02-23 05:06:00,22.7,20.5,30.05,West,264,0.0,0.0,91,0.00,CLR,,0.00,0.0,WeatherDisplay:10.37,2013-02-23 11:06:00,
2013-02-23 05:11:00,22.7,20.5,30.05,West,264,0.0,0.0,91,0.00,CLR,,0.00,0.0,WeatherDisplay:10.37,2013-02-23 11:11:00,
2013-02-23 05:16:00,22.5,20.3,30.05,West,264,0.0,0.0,91,0.00,CLR,,0.00,0.0,WeatherDisplay:10.37,2013-02-23 11:16:00,
2013-02-23 05:21:00,22.6,20.4,30.05,West,264,0.0,0.0,91,0.00,CLR,,0.00,0.0,WeatherDisplay:10.37,2013-02-23 11:21:00,
2013-02-23 05:26:00,22.6,20.4,30.05,West,264,0.0,0.0,91,0.00,CLR,,0.00,0.0,WeatherDisplay:10.37,2013-02-23 11:26:00,
2013-02-23 05:31:00,22.4,20.2,30.06,West,264,0.0,0.0,91,0.00,CLR,,0.00,0.0,WeatherDisplay:10.37,2013-02-23 11:31:00,
2013-02-23 05:36:00,22.3,20.1,30.06,West,264,0.0,0.0,91,0.00,CLR,,0.00,0.0,WeatherDisplay:10.37,2013-02-23 11:36:00,
2013-02-23 05:41:00,22.2,20.0,30.06,West,264,0.0,0.0,91,0.00,CLR,,0.00,0.0,WeatherDisplay:10.37,2013-02-23 11:41:00,
2013-02-23 05:46:00,22.2,20.0,30.06,West,264,0.0,0.0,91,0.00,CLR,,0.00,0.0,WeatherDisplay:10.37,2013-02-23 11:46:00,
2013-02-23 05:51:00,22.2,20.0,30.05,West,264,0.0,0.0,91,0.00,CLR,,0.00,0.0,WeatherDisplay:10.37,2013-02-23 11:51:00,
2013-02-23 05:56:00,22.2,20.0,30.05,West,264,0.0,0.0,91,0.00,CLR,,0.00,0.0,WeatherDisplay:10.37,2013-02-23 11:56:00,
2013-02-23 06:01:00,22.1,19.9,30.04,West,264,0.0,0.0,91,0.00,CLR,,0.00,0.0,WeatherDisplay:10.37,2013-02-23 12:01:00,
2013-02-23 06:06:00,22.1,19.9,30.04,West,264,0.0,0.0,91,0.00,CLR,,0.00,0.0,WeatherDisplay:10.37,2013-02-23 12:06:00,
2013-02-23 06:11:00,22.1,19.9,30.03,West,264,0.0,0.0,91,0.00,CLR,,0.00,0.0,WeatherDisplay:10.37,2013-02-23 12:11:00,
2013-02-23 06:16:00,22.0,19.8,30.03,West,264,0.0,0.0,91,0.00,CLR,,0.00,0.0,WeatherDisplay:10.37,2013-02-23 12:16:00,
2013-02-23 06:21:00,22.0,19.8,30.03,West,264,0.0,0.0,91,0.00,CLR,,0.00,0.0,WeatherDisplay:10.37,2013-02-23 12:21:00,
2013-02-23 06:26:00,21.9,19.7,30.03,West,264,0.0,0.0,91,0.00,CLR,,0.00,0.0,WeatherDisplay:10.37,2013-02-23 12:26:00,
2013-02-23 06:31:00,21.9,19.7,30.04,West,264,0.0,0.0,91,0.00,CLR,,0.00,0.0,WeatherDisplay:10.37,2013-02-23 12:31:00,
2013-02-23 06:36:00,21.8,19.3,30.04,West,264,0.0,0.0,90,0.00,CLR,,0.00,0.0,WeatherDisplay:10.37,2013-02-23 12:36:00,
2013-02-23 06:41:00,21.8,19.3,30.05,West,264,0.0,0.0,90,0.00,CLR,,0.00,0.0,WeatherDisplay:10.37,2013-02-23 12:41:00,
2013-02-23 06:46:00,21.7,19.2,30.04,West,264,0.0,0.0,90,0.00,CLR,,0.00,0.0,WeatherDisplay:10.37,2013-02-23 12:46:00,
2013-02-23 06:51:00,21.7,19.2,30.04,West,264,0.0,0.0,90,0.00,CLR,,0.00,0.0,WeatherDisplay:10.37,2013-02-23 12:51:00,
2013-02-23 06:56:00,21.7,19.2,30.04,West,264,0.0,0.0,90,0.00,CLR,,0.00,5.0,WeatherDisplay:10.37,2013-02-23 12:56:00,
2013-02-23 07:01:00,21.7,19.2,30.04,West,264,0.0,0.0,90,0.00,CLR,,0.00,9.0,WeatherDisplay:10.37,2013-02-23 13:01:00,
2013-02-23 07:06:00,21.7,19.2,30.05,West,264,0.0,0.0,90,0.00,CLR,,0.00,12.0,WeatherDisplay:10.37,2013-02-23 13:06:00,
2013-02-23 07:11:00,21.8,19.3,30.05,West,264,0.0,0.0,90,0.00,CLR,,0.00,16.0,WeatherDisplay:10.37,2013-02-23 13:11:00,
2013-02-23 07:16:00,22.0,19.8,30.05,West,264,0.0,0.0,91,0.00,CLR,,0.00,25.0,WeatherDisplay:10.37,2013-02-23 13:16:00,
2013-02-23 07:21:00,22.2,20.0,30.05,West,264,0.0,0.0,91,0.00,CLR,,0.00,30.0,WeatherDisplay:10.37,2013-02-23 13:21:00,
2013-02-23 07:26:00,22.2,19.7,30.06,West,264,0.0,0.0,90,0.00,CLR,,0.00,39.0,WeatherDisplay:10.37,2013-02-23 13:26:00,
2013-02-23 07:31:00,22.4,19.9,30.06,West,264,0.0,0.0,90,0.00,CLR,,0.00,44.0,WeatherDisplay:10.37,2013-02-23 13:31:00,
2013-02-23 07:36:00,22.8,20.6,30.06,West,264,0.0,0.0,91,0.00,CLR,,0.00,54.0,WeatherDisplay:10.37,2013-02-23 13:36:00,
2013-02-23 07:42:00,23.3,21.1,30.06,West,264,0.0,0.0,91,0.00,CLR,,0.00,67.0,WeatherDisplay:10.37,2013-02-23 13:42:00,
2013-02-23 07:47:00,23.7,21.5,30.07,West,264,0.0,0.0,91,0.00,CLR,,0.00,83.0,WeatherDisplay:10.37,2013-02-23 13:47:00,
2013-02-23 07:52:00,24.0,21.8,30.07,West,264,0.0,0.0,91,0.00,CLR,,0.00,105.0,WeatherDisplay:10.37,2013-02-23 13:52:00,
2013-02-23 07:57:00,24.7,22.4,30.07,West,264,0.0,0.0,91,0.00,CLR,,0.00,137.0,WeatherDisplay:10.37,2013-02-23 13:57:00,
2013-02-23 08:02:00,25.4,23.1,30.07,West,264,0.0,0.0,91,0.00,CLR,,0.00,158.0,WeatherDisplay:10.37,2013-02-23 14:02:00,
2013-02-23 08:07:00,25.7,23.4,30.07,West,264,0.0,0.0,91,0.00,CLR,,0.00,176.0,WeatherDisplay:10.37,2013-02-23 14:07:00,
2013-02-23 08:12:00,26.4,24.1,30.07,West,264,0.0,0.0,91,0.00,CLR,,0.00,199.0,WeatherDisplay:10.37,2013-02-23 14:12:00,
2013-02-23 08:17:00,27.2,24.9,30.07,West,264,0.0,0.0,91,0.00,CLR,,0.00,225.0,WeatherDisplay:10.37,2013-02-23 14:17:00,
2013-02-23 08:22:00,27.8,25.5,30.08,West,264,0.0,0.0,91,0.00,CLR,,0.00,264.0,WeatherDisplay:10.37,2013-02-23 14:22:00,
2013-02-23 08:27:00,28.1,25.5,30.08,West,264,0.0,0.0,90,0.00,CLR,,0.00,276.0,WeatherDisplay:10.37,2013-02-23 14:27:00,
2013-02-23 08:32:00,27.6,24.8,30.08,South,183,2.3,2.3,89,0.00,CLR,,0.00,292.0,WeatherDisplay:10.37,2013-02-23 14:32:00,
2013-02-23 08:37:00,28.0,25.2,30.08,SSW,202,2.4,3.5,89,0.00,CLR,,0.00,318.0,WeatherDisplay:10.37,2013-02-23 14:37:00,
2013-02-23 08:42:00,28.3,25.5,30.08,South,186,1.9,2.6,89,0.00,CLR,,0.00,332.0,WeatherDisplay:10.37,2013-02-23 14:42:00,
2013-02-23 08:47:00,28.8,26.0,30.08,SSW,212,0.1,1.3,89,0.00,CLR,,0.00,350.0,WeatherDisplay:10.37,2013-02-23 14:47:00,
2013-02-23 08:52:00,29.3,26.5,30.09,West,275,1.4,2.3,89,0.00,CLR,,0.00,364.0,WeatherDisplay:10.37,2013-02-23 14:52:00,
2013-02-23 08:57:00,29.7,26.6,30.08,West,275,3.5,4.0,88,0.00,CLR,,0.00,380.0,WeatherDisplay:10.37,2013-02-23 14:57:00,
2013-02-23 09:02:00,30.1,27.0,30.08,WSW,240,0.0,0.0,88,0.00,CLR,,0.00,390.0,WeatherDisplay:10.37,2013-02-23 15:02:00,
2013-02-23 09:07:00,30.4,27.0,30.08,SW,228,0.9,2.3,87,0.00,CLR,,0.00,413.0,WeatherDisplay:10.37,2013-02-23 15:07:00,
2013-02-23 09:12:00,31.0,27.3,30.08,SW,228,1.3,2.3,86,0.00,CLR,,0.00,427.0,WeatherDisplay:10.37,2013-02-23 15:12:00,
2013-02-23 09:17:00,31.4,27.7,30.08,South,183,1.8,2.3,86,0.00,CLR,,0.00,446.0,WeatherDisplay:10.37,2013-02-23 15:17:00,
2013-02-23 09:22:00,32.5,28.5,30.08,South,183,0.3,1.1,85,0.00,CLR,,0.00,459.0,WeatherDisplay:10.37,2013-02-23 15:22:00,
2013-02-23 09:27:00,32.0,27.4,30.08,South,183,0.4,1.3,83,0.00,CLR,,0.00,466.0,WeatherDisplay:10.37,2013-02-23 15:27:00,
2013-02-23 09:32:00,32.2,27.9,30.08,SSW,206,2.0,2.3,84,0.00,CLR,,0.00,480.0,WeatherDisplay:10.37,2013-02-23 15:32:00,
2013-02-23 09:37:00,32.8,27.9,30.08,SW,215,4.4,5.8,82,0.00,CLR,,0.00,504.0,WeatherDisplay:10.37,2013-02-23 15:37:00,
2013-02-23 09:42:00,32.9,28.3,30.08,SSW,211,4.6,6.9,83,0.00,CLR,,0.00,515.0,WeatherDisplay:10.37,2013-02-23 15:42:00,
2013-02-23 09:47:00,33.4,28.5,30.08,West,259,1.5,2.6,82,0.00,CLR,,0.00,526.0,WeatherDisplay:10.37,2013-02-23 15:47:00,
2013-02-23 09:52:00,33.6,28.1,30.08,South,172,4.3,5.8,80,0.00,CLR,,0.00,540.0,WeatherDisplay:10.37,2013-02-23 15:52:00,
2013-02-23 09:57:00,34.2,28.4,30.08,SW,214,2.5,3.5,79,0.00,CLR,,0.00,555.0,WeatherDisplay:10.37,2013-02-23 15:57:00,
2013-02-23 10:02:00,35.2,30.0,30.08,SSE,168,1.1,2.6,81,0.00,CLR,,0.00,571.0,WeatherDisplay:10.37,2013-02-23 16:02:00,
2013-02-23 10:07:00,35.0,28.2,30.08,SSW,195,2.2,3.5,76,0.00,CLR,,0.00,575.0,WeatherDisplay:10.37,2013-02-23 16:07:00,
2013-02-23 10:12:00,35.2,28.7,30.08,SW,233,4.1,6.9,77,0.00,CLR,,0.00,587.0,WeatherDisplay:10.37,2013-02-23 16:12:00,
2013-02-23 10:17:00,35.9,29.1,30.08,ESE,114,1.3,2.6,76,0.00,CLR,,0.00,613.0,WeatherDisplay:10.37,2013-02-23 16:17:00,
2013-02-23 10:22:00,36.5,29.7,30.08,SE,128,5.9,9.2,76,0.00,CLR,,0.00,612.0,WeatherDisplay:10.37,2013-02-23 16:22:00,
2013-02-23 10:27:00,36.5,29.3,30.08,SSE,147,1.3,2.3,75,0.00,CLR,,0.00,622.0,WeatherDisplay:10.37,2013-02-23 16:27:00,
2013-02-23 10:32:00,36.8,29.0,30.08,WNW,298,4.2,4.2,73,0.00,CLR,,0.00,635.0,WeatherDisplay:10.37,2013-02-23 16:32:00,
2013-02-23 10:37:00,37.2,29.3,30.09,WNW,299,2.9,3.5,73,0.00,CLR,,0.00,638.0,WeatherDisplay:10.37,2013-02-23 16:37:00,
2013-02-23 10:42:00,37.9,27.9,30.09,SSE,151,5.8,6.9,67,0.00,CLR,,0.00,649.0,WeatherDisplay:10.37,2013-02-23 16:42:00,
2013-02-23 10:47:00,37.3,27.3,30.08,North,9,3.2,3.5,67,0.00,CLR,,0.00,671.0,WeatherDisplay:10.37,2013-02-23 16:47:00,
2013-02-23 10:52:00,37.6,27.3,30.09,North,351,2.0,5.8,66,0.00,CLR,,0.00,679.0,WeatherDisplay:10.37,2013-02-23 16:52:00,
2013-02-23 10:57:00,38.7,29.8,30.08,SE,144,0.9,2.3,70,0.00,CLR,,0.00,687.0,WeatherDisplay:10.37,2013-02-23 16:57:00,
2013-02-23 11:02:00,39.1,28.7,30.09,SE,144,5.8,6.9,66,0.00,CLR,,0.00,693.0,WeatherDisplay:10.37,2013-02-23 17:02:00,
2013-02-23 11:07:00,39.2,30.2,30.08,WNW,295,0.3,1.1,70,0.00,CLR,,0.00,694.0,WeatherDisplay:10.37,2013-02-23 17:07:00,
2013-02-23 11:12:00,39.0,28.2,30.09,SSW,195,5.1,5.8,65,0.00,CLR,,0.00,707.0,WeatherDisplay:10.37,2013-02-23 17:12:00,
2013-02-23 11:17:00,38.8,28.4,30.09,SSW,204,6.0,8.1,66,0.00,CLR,,0.00,722.0,WeatherDisplay:10.37,2013-02-23 17:17:00,
2013-02-23 11:22:00,39.3,28.9,30.09,SSE,163,2.6,5.3,66,0.00,CLR,,0.00,728.0,WeatherDisplay:10.37,2013-02-23 17:22:00,
2013-02-23 11:27:00,39.7,29.6,30.09,SSW,205,7.3,8.1,67,0.00,CLR,,0.00,733.0,WeatherDisplay:10.37,2013-02-23 17:27:00,
2013-02-23 11:32:00,39.5,28.3,30.09,SW,215,5.3,6.9,64,0.00,CLR,,0.00,742.0,WeatherDisplay:10.37,2013-02-23 17:32:00,
2013-02-23 11:37:00,40.0,29.2,30.08,SW,235,0.8,3.5,65,0.00,CLR,,0.00,733.0,WeatherDisplay:10.37,2013-02-23 17:37:00,
2013-02-23 11:42:00,40.4,29.2,30.08,WNW,284,2.4,4.0,64,0.00,CLR,,0.00,742.0,WeatherDisplay:10.37,2013-02-23 17:42:00,
2013-02-23 11:47:00,40.1,29.3,30.07,NW,310,1.0,2.3,65,0.00,CLR,,0.00,763.0,WeatherDisplay:10.37,2013-02-23 17:47:00,
2013-02-23 11:52:00,40.9,27.2,30.07,SW,214,5.8,8.1,58,0.00,CLR,,0.00,761.0,WeatherDisplay:10.37,2013-02-23 17:52:00,
2013-02-23 11:57:00,41.6,26.2,30.07,West,274,4.6,8.1,54,0.00,CLR,,0.00,763.0,WeatherDisplay:10.37,2013-02-23 17:57:00,
2013-02-23 12:02:00,40.7,25.3,30.07,SW,219,6.1,8.1,54,0.00,CLR,,0.00,754.0,WeatherDisplay:10.37,2013-02-23 18:02:00,
2013-02-23 12:07:00,41.1,25.3,30.07,SSW,207,5.8,6.9,53,0.00,CLR,,0.00,779.0,WeatherDisplay:10.37,2013-02-23 18:07:00,
2013-02-23 12:12:00,41.1,27.9,30.07,SW,224,7.3,9.2,59,0.00,CLR,,0.00,770.0,WeatherDisplay:10.37,2013-02-23 18:12:00,
2013-02-23 12:17:00,40.8,24.5,30.06,WSW,248,3.3,6.9,52,0.00,CLR,,0.00,772.0,WeatherDisplay:10.37,2013-02-23 18:17:00,
2013-02-23 12:22:00,41.2,25.8,30.05,WSW,249,5.4,6.9,54,0.00,CLR,,0.00,773.0,WeatherDisplay:10.37,2013-02-23 18:22:00,
2013-02-23 12:27:00,41.5,24.2,30.05,SSE,158,3.5,5.8,50,0.00,CLR,,0.00,773.0,WeatherDisplay:10.37,2013-02-23 18:27:00,
2013-02-23 12:32:00,41.9,25.1,30.05,South,173,2.6,3.5,51,0.00,CLR,,0.00,770.0,WeatherDisplay:10.37,2013-02-23 18:32:00,
2013-02-23 12:37:00,42.5,27.5,30.05,South,186,2.3,3.5,55,0.00,CLR,,0.00,772.0,WeatherDisplay:10.37,2013-02-23 18:37:00,
2013-02-23 12:42:00,42.5,27.0,30.05,WNW,296,6.6,6.9,54,0.00,CLR,,0.00,773.0,WeatherDisplay:10.37,2013-02-23 18:42:00,
2013-02-23 12:47:00,42.7,28.5,30.04,NNW,335,4.2,5.8,57,0.00,CLR,,0.00,768.0,WeatherDisplay:10.37,2013-02-23 18:47:00,
2013-02-23 12:52:00,43.2,28.1,30.04,WSW,239,5.5,5.8,55,0.00,CLR,,0.00,768.0,WeatherDisplay:10.37,2013-02-23 18:52:00,
2013-02-23 12:57:00,43.7,27.2,30.04,WSW,244,4.6,5.8,52,0.00,CLR,,0.00,766.0,WeatherDisplay:10.37,2013-02-23 18:57:00,
2013-02-23 13:02:00,43.9,26.9,30.04,WNW,296,3.4,4.0,51,0.00,CLR,,0.00,761.0,WeatherDisplay:10.37,2013-02-23 19:02:00,
2013-02-23 13:07:00,44.4,29.2,30.03,NW,323,4.6,7.9,55,0.00,CLR,,0.00,756.0,WeatherDisplay:10.37,2013-02-23 19:07:00,
2013-02-23 13:12:00,44.2,27.7,30.03,WSW,241,5.1,10.4,52,0.00,CLR,,0.00,754.0,WeatherDisplay:10.37,2013-02-23 19:12:00,
2013-02-23 13:17:00,44.6,29.4,30.03,ESE,119,2.9,6.6,55,0.00,CLR,,0.00,773.0,WeatherDisplay:10.37,2013-02-23 19:17:00,
2013-02-23 13:22:00,45.1,28.0,30.02,SW,227,9.0,10.4,51,0.00,CLR,,0.00,666.0,WeatherDisplay:10.37,2013-02-23 19:22:00,
2013-02-23 13:27:00,45.4,27.3,30.02,WNW,300,7.0,10.4,49,0.00,CLR,,0.00,756.0,WeatherDisplay:10.37,2013-02-23 19:27:00,
2013-02-23 13:32:00,45.5,26.9,30.02,WSW,240,7.5,10.4,48,0.00,CLR,,0.00,737.0,WeatherDisplay:10.37,2013-02-23 19:32:00,
2013-02-23 13:37:00,46.3,27.2,30.02,West,259,10.2,11.9,47,0.00,CLR,,0.00,765.0,WeatherDisplay:10.37,2013-02-23 19:37:00,
2013-02-23 13:42:00,46.7,28.5,30.02,WSW,253,9.2,10.4,49,0.00,CLR,,0.00,802.0,WeatherDisplay:10.37,2013-02-23 19:42:00,
2013-02-23 13:47:00,46.6,28.4,30.02,SW,225,7.2,9.2,49,0.00,CLR,,0.00,802.0,WeatherDisplay:10.37,2013-02-23 19:47:00,
2013-02-23 13:52:00,47.2,28.0,30.02,West,259,5.7,8.1,47,0.00,CLR,,0.00,703.0,WeatherDisplay:10.37,2013-02-23 19:52:00,
2013-02-23 13:57:00,47.3,27.5,30.02,SW,215,6.6,10.4,46,0.00,CLR,,0.00,756.0,WeatherDisplay:10.37,2013-02-23 19:57:00,
2013-02-23 14:02:00,47.6,27.8,30.01,WSW,255,7.7,9.2,46,0.00,SCT,,0.00,752.0,WeatherDisplay:10.37,2013-02-23 20:02:00,
2013-02-23 14:07:00,47.1,27.4,30.01,WSW,253,6.9,10.4,46,0.00,SCT,,0.00,786.0,WeatherDisplay:10.37,2013-02-23 20:07:00,
2013-02-23 14:12:00,47.8,27.5,30.01,SW,215,7.3,9.2,45,0.00,SCT,,0.00,608.0,WeatherDisplay:10.37,2013-02-23 20:12:00,
2013-02-23 14:17:00,47.6,26.7,30.01,SW,226,12.4,17.3,44,0.00,SCT,,0.00,728.0,WeatherDisplay:10.37,2013-02-23 20:17:00,
2013-02-23 14:22:00,47.8,28.5,30.01,West,275,5.3,10.6,47,0.00,SCT,,0.00,575.0,WeatherDisplay:10.37,2013-02-23 20:22:00,
2013-02-23 14:27:00,47.9,27.0,30.01,West,271,8.8,11.5,44,0.00,SCT,,0.00,541.0,WeatherDisplay:10.37,2013-02-23 20:27:00,
2013-02-23 14:32:00,47.9,25.9,30.01,SW,235,7.9,9.2,42,0.00,SCT,,0.00,599.0,WeatherDisplay:10.37,2013-02-23 20:32:00,
2013-02-23 14:37:00,48.2,26.7,30.00,West,275,9.0,10.6,43,0.00,SCT,,0.00,650.0,WeatherDisplay:10.37,2013-02-23 20:37:00,
2013-02-23 14:42:00,48.4,29.6,30.00,SSW,209,2.1,3.5,48,0.00,SCT,,0.00,645.0,WeatherDisplay:10.37,2013-02-23 20:42:00,
2013-02-23 14:47:00,48.3,27.4,30.00,WNW,303,5.6,9.2,44,0.00,SCT,,0.00,561.0,WeatherDisplay:10.37,2013-02-23 20:47:00,
2013-02-23 14:52:00,47.8,28.0,30.00,WSW,250,6.5,6.9,46,0.00,SCT,,0.00,596.0,WeatherDisplay:10.37,2013-02-23 20:52:00,
2013-02-23 14:57:00,48.0,27.1,30.00,SSW,193,5.3,10.4,44,0.00,SCT,,0.00,571.0,WeatherDisplay:10.37,2013-02-23 20:57:00,
2013-02-23 15:02:00,48.1,26.6,29.99,SSW,195,6.7,8.1,43,0.00,CLR,,0.00,568.0,WeatherDisplay:10.37,2013-02-23 21:02:00,
2013-02-23 15:07:00,48.1,26.6,29.99,SW,219,6.4,15.0,43,0.00,CLR,,0.00,520.0,WeatherDisplay:10.37,2013-02-23 21:07:00,
2013-02-23 15:12:00,48.4,26.9,29.98,SW,227,5.8,8.1,43,0.00,CLR,,0.00,515.0,WeatherDisplay:10.37,2013-02-23 21:12:00,
2013-02-23 15:17:00,48.5,25.8,29.98,West,259,6.0,8.1,41,0.00,CLR,,0.00,527.0,WeatherDisplay:10.37,2013-02-23 21:17:00,
2013-02-23 15:22:00,48.5,24.6,29.97,SW,215,5.3,7.9,39,0.00,CLR,,0.00,512.0,WeatherDisplay:10.37,2013-02-23 21:22:00,
2013-02-23 15:27:00,48.0,26.0,29.97,SW,234,2.2,5.3,42,0.00,CLR,,0.00,496.0,WeatherDisplay:10.37,2013-02-23 21:27:00,
2013-02-23 15:32:00,48.2,23.7,29.97,SW,221,4.2,8.1,38,0.00,CLR,,0.00,480.0,WeatherDisplay:10.37,2013-02-23 21:32:00,
2013-02-23 15:37:00,48.5,25.2,29.97,WNW,298,3.5,5.8,40,0.00,CLR,,0.00,464.0,WeatherDisplay:10.37,2013-02-23 21:37:00,
2013-02-23 15:42:00,48.6,24.7,29.97,SW,233,6.4,8.1,39,0.00,CLR,,0.00,446.0,WeatherDisplay:10.37,2013-02-23 21:42:00,
2013-02-23 15:47:00,48.7,24.2,29.96,WSW,254,6.2,9.2,38,0.00,CLR,,0.00,431.0,WeatherDisplay:10.37,2013-02-23 21:47:00,
2013-02-23 15:52:00,48.5,25.2,29.96,West,268,1.3,2.6,40,0.00,CLR,,0.00,413.0,WeatherDisplay:10.37,2013-02-23 21:52:00,
2013-02-23 15:57:00,49.4,25.4,29.96,West,266,5.0,6.9,39,0.00,CLR,,0.00,396.0,WeatherDisplay:10.37,2013-02-23 21:57:00,
2013-02-23 16:02:00,48.8,24.3,29.96,WSW,238,2.6,5.8,38,0.00,CLR,,0.00,380.0,WeatherDisplay:10.37,2013-02-23 22:02:00,
2013-02-23 16:07:00,48.5,24.0,29.96,SW,214,2.8,5.8,38,0.00,CLR,,0.00,360.0,WeatherDisplay:10.37,2013-02-23 22:07:00,
2013-02-23 16:12:00,48.7,24.8,29.96,SW,221,4.4,5.3,39,0.00,CLR,,0.00,345.0,WeatherDisplay:10.37,2013-02-23 22:12:00,
2013-02-23 16:17:00,49.2,25.3,29.96,SW,214,5.3,6.6,39,0.00,CLR,,0.00,325.0,WeatherDisplay:10.37,2013-02-23 22:17:00,
2013-02-23 16:22:00,48.8,24.9,29.96,SSE,163,3.3,5.8,39,0.00,CLR,,0.00,304.0,WeatherDisplay:10.37,2013-02-23 22:22:00,
2013-02-23 16:27:00,48.9,25.6,29.96,SW,223,4.1,6.9,40,0.00,CLR,,0.00,285.0,WeatherDisplay:10.37,2013-02-23 22:27:00,
2013-02-23 16:32:00,48.8,25.5,29.95,SSE,153,6.5,6.9,40,0.00,CLR,,0.00,239.0,WeatherDisplay:10.37,2013-02-23 22:32:00,
2013-02-23 16:37:00,48.7,27.2,29.95,South,169,6.1,6.9,43,0.00,CLR,,0.00,239.0,WeatherDisplay:10.37,2013-02-23 22:37:00,
2013-02-23 16:42:00,48.5,27.0,29.95,SSW,192,4.7,6.9,43,0.00,CLR,,0.00,174.0,WeatherDisplay:10.37,2013-02-23 22:42:00,
2013-02-23 16:47:00,48.4,27.5,29.95,SSW,207,5.4,7.9,44,0.00,CLR,,0.00,202.0,WeatherDisplay:10.37,2013-02-23 22:47:00,
2013-02-23 16:52:00,48.0,28.2,29.95,WSW,237,2.9,6.6,46,0.00,CLR,,0.00,153.0,WeatherDisplay:10.37,2013-02-23 22:52:00,
2013-02-23 16:57:00,47.9,28.1,29.95,SW,228,1.6,5.3,46,0.00,CLR,,0.00,137.0,WeatherDisplay:10.37,2013-02-23 22:57:00,
2013-02-23 17:02:00,47.5,27.2,29.95,SW,222,4.9,6.9,45,0.00,CLR,,0.00,102.0,WeatherDisplay:10.37,2013-02-23 23:02:00,
2013-02-23 17:07:00,47.4,27.1,29.95,South,176,2.3,5.8,45,0.00,CLR,,0.00,83.0,WeatherDisplay:10.37,2013-02-23 23:07:00,
2013-02-23 17:12:00,47.2,26.4,29.95,South,188,3.8,5.8,44,0.00,CLR,,0.00,46.0,WeatherDisplay:10.37,2013-02-23 23:12:00,
2013-02-23 17:17:00,47.2,27.5,29.95,SW,229,3.0,3.5,46,0.00,CLR,,0.00,49.0,WeatherDisplay:10.37,2013-02-23 23:17:00,
2013-02-23 17:22:00,47.2,26.9,29.95,WSW,238,1.4,6.9,45,0.00,CLR,,0.00,51.0,WeatherDisplay:10.37,2013-02-23 23:22:00,
2013-02-23 17:27:00,47.0,26.7,29.96,SW,228,3.4,4.0,45,0.00,CLR,,0.00,54.0,WeatherDisplay:10.37,2013-02-23 23:27:00,
2013-02-23 17:32:00,46.9,26.6,29.95,SSW,209,2.0,3.5,45,0.00,CLR,,0.00,40.0,WeatherDisplay:10.37,2013-02-23 23:32:00,
2013-02-23 17:37:00,46.7,26.5,29.95,SSW,205,3.4,5.8,45,0.00,CLR,,0.00,28.0,WeatherDisplay:10.37,2013-02-23 23:37:00,
2013-02-23 17:42:00,46.4,27.2,29.95,SW,215,0.0,1.1,47,0.00,CLR,,0.00,21.0,WeatherDisplay:10.37,2013-02-23 23:42:00,
2013-02-23 17:47:00,46.1,27.0,29.95,SW,219,0.8,2.3,47,0.00,CLR,,0.00,18.0,WeatherDisplay:10.37,2013-02-23 23:47:00,
2013-02-23 17:52:00,45.6,27.5,29.95,SW,219,0.0,0.0,49,0.00,CLR,,0.00,14.0,WeatherDisplay:10.37,2013-02-23 23:52:00,
2013-02-23 17:57:00,45.3,27.7,29.96,SW,219,0.0,0.0,50,0.00,CLR,,0.00,9.0,WeatherDisplay:10.37,2013-02-23 23:57:00,
2013-02-23 18:02:00,44.9,27.4,29.96,SW,219,0.0,0.0,50,0.00,CLR,,0.00,5.0,WeatherDisplay:10.37,2013-02-24 00:02:00,
2013-02-23 18:07:00,44.1,29.4,29.96,SW,219,0.0,0.0,56,0.00,CLR,,0.00,0.0,WeatherDisplay:10.37,2013-02-24 00:07:00,
2013-02-23 18:12:00,43.5,28.4,29.96,SW,219,0.0,0.0,55,0.00,CLR,,0.00,0.0,WeatherDisplay:10.37,2013-02-24 00:12:00,
2013-02-23 18:17:00,42.9,27.8,29.97,SW,219,0.0,0.0,55,0.00,CLR,,0.00,0.0,WeatherDisplay:10.37,2013-02-24 00:17:00,
2013-02-23 18:22:00,42.4,27.8,29.97,SW,219,0.0,0.0,56,0.00,CLR,,0.00,0.0,WeatherDisplay:10.37,2013-02-24 00:22:00,
2013-02-23 18:27:00,41.8,27.7,29.97,SW,219,0.0,0.0,57,0.00,CLR,,0.00,0.0,WeatherDisplay:10.37,2013-02-24 00:27:00,
2013-02-23 18:32:00,41.3,28.0,29.98,SW,219,0.0,0.0,59,0.00,CLR,,0.00,0.0,WeatherDisplay:10.37,2013-02-24 00:32:00,
2013-02-23 18:37:00,41.0,28.6,29.98,SW,219,0.0,0.0,61,0.00,CLR,,0.00,0.0,WeatherDisplay:10.37,2013-02-24 00:37:00,
2013-02-23 18:42:00,40.6,29.4,29.97,SW,219,0.0,0.0,64,0.00,CLR,,0.00,0.0,WeatherDisplay:10.37,2013-02-24 00:42:00,
2013-02-23 18:47:00,40.1,28.9,29.98,SW,219,0.0,0.0,64,0.00,CLR,,0.00,0.0,WeatherDisplay:10.37,2013-02-24 00:47:00,
2013-02-23 18:52:00,39.6,29.2,29.98,SW,219,0.0,0.0,66,0.00,CLR,,0.00,0.0,WeatherDisplay:10.37,2013-02-24 00:52:00,
2013-02-23 18:57:00,39.0,30.7,29.98,SW,219,0.0,0.0,72,0.00,CLR,,0.00,0.0,WeatherDisplay:10.37,2013-02-24 00:57:00,
2013-02-23 19:02:00,38.3,30.1,29.98,SW,219,0.0,0.0,72,0.00,CLR,,0.00,0.0,WeatherDisplay:10.37,2013-02-24 01:02:00,
2013-02-23 19:07:00,38.0,30.1,29.98,SW,219,0.0,0.0,73,0.00,CLR,,0.00,0.0,WeatherDisplay:10.37,2013-02-24 01:07:00,
2013-02-23 19:12:00,37.6,29.4,29.98,SW,219,0.0,0.0,72,0.00,CLR,,0.00,0.0,WeatherDisplay:10.37,2013-02-24 01:12:00,
2013-02-23 19:17:00,36.9,29.4,29.98,SW,219,0.0,0.0,74,0.00,CLR,,0.00,0.0,WeatherDisplay:10.37,2013-02-24 01:17:00,
2013-02-23 19:22:00,36.5,29.7,29.99,SW,219,0.0,0.0,76,0.00,CLR,,0.00,0.0,WeatherDisplay:10.37,2013-02-24 01:22:00,
2013-02-23 19:27:00,36.3,29.1,29.99,SW,219,0.0,0.0,75,0.00,CLR,,0.00,0.0,WeatherDisplay:10.37,2013-02-24 01:27:00,
2013-02-23 19:32:00,35.6,29.1,30.00,SW,219,0.0,0.0,77,0.00,CLR,,0.00,0.0,WeatherDisplay:10.37,2013-02-24 01:32:00,
2013-02-23 19:37:00,35.5,29.3,29.99,SW,219,0.0,0.0,78,0.00,CLR,,0.00,0.0,WeatherDisplay:10.37,2013-02-24 01:37:00,
2013-02-23 19:42:00,35.2,29.3,30.00,SW,219,0.0,0.0,79,0.00,CLR,,0.00,0.0,WeatherDisplay:10.37,2013-02-24 01:42:00,
2013-02-23 19:47:00,34.7,28.9,30.00,SW,219,0.0,0.0,79,0.00,CLR,,0.00,0.0,WeatherDisplay:10.37,2013-02-24 01:47:00,
2013-02-23 19:52:00,34.6,29.1,30.01,SW,219,0.0,0.0,80,0.00,CLR,,0.00,0.0,WeatherDisplay:10.37,2013-02-24 01:52:00,
2013-02-23 19:57:00,34.9,29.0,30.01,SW,219,0.0,0.0,79,0.00,CLR,,0.00,0.0,WeatherDisplay:10.37,2013-02-24 01:57:00,
2013-02-23 20:02:00,34.7,28.9,30.01,SW,220,0.0,0.0,79,0.00,CLR,,0.00,0.0,WeatherDisplay:10.37,2013-02-24 02:02:00,
2013-02-23 20:07:00,34.4,28.9,30.01,WNW,284,0.0,0.0,80,0.00,CLR,,0.00,0.0,WeatherDisplay:10.37,2013-02-24 02:07:00,
2013-02-23 20:12:00,34.3,28.8,30.01,WNW,284,0.0,0.0,80,0.00,CLR,,0.00,0.0,WeatherDisplay:10.37,2013-02-24 02:12:00,
2013-02-23 20:17:00,34.2,28.4,30.01,WNW,284,0.0,0.0,79,0.00,CLR,,0.00,0.0,WeatherDisplay:10.37,2013-02-24 02:17:00,
2013-02-23 20:22:00,34.3,28.5,30.01,WNW,284,0.0,0.0,79,0.00,CLR,,0.00,0.0,WeatherDisplay:10.37,2013-02-24 02:22:00,
2013-02-23 20:27:00,33.5,28.3,30.01,WNW,284,0.0,0.0,81,0.00,CLR,,0.00,0.0,WeatherDisplay:10.37,2013-02-24 02:27:00,
2013-02-23 20:32:00,33.1,28.2,30.01,WNW,284,0.0,0.0,82,0.00,CLR,,0.00,0.0,WeatherDisplay:10.37,2013-02-24 02:32:00,
2013-02-23 20:37:00,32.8,28.5,30.00,ENE,67,0.0,0.0,84,0.00,CLR,,0.00,0.0,WeatherDisplay:10.37,2013-02-24 02:37:00,
2013-02-23 20:42:00,32.6,28.3,30.00,ENE,67,0.0,0.0,84,0.00,CLR,,0.00,0.0,WeatherDisplay:10.37,2013-02-24 02:42:00,
2013-02-23 20:47:00,32.5,28.2,30.00,ENE,67,0.0,0.0,84,0.00,CLR,,0.00,0.0,WeatherDisplay:10.37,2013-02-24 02:47:00,
2013-02-23 20:52:00,32.3,28.0,30.01,ENE,67,0.0,0.0,84,0.00,CLR,,0.00,0.0,WeatherDisplay:10.37,2013-02-24 02:52:00,
2013-02-23 20:57:00,32.2,28.5,30.00,ENE,67,0.0,0.0,86,0.00,CLR,,0.00,0.0,WeatherDisplay:10.37,2013-02-24 02:57:00,
2013-02-23 21:02:00,32.0,28.3,30.00,ENE,67,0.0,0.0,86,0.00,CLR,,0.00,0.0,WeatherDisplay:10.37,2013-02-24 03:02:00,
2013-02-23 21:08:00,31.9,28.2,30.00,ENE,67,0.0,0.0,86,0.00,CLR,,0.00,0.0,WeatherDisplay:10.37,2013-02-24 03:08:00,
2013-02-23 21:13:00,31.7,28.0,30.00,ENE,67,0.0,0.0,86,0.00,CLR,,0.00,0.0,WeatherDisplay:10.37,2013-02-24 03:13:00,
2013-02-23 21:18:00,31.4,27.7,30.00,ENE,67,0.0,0.0,86,0.00,CLR,,0.00,0.0,WeatherDisplay:10.37,2013-02-24 03:18:00,
2013-02-23 21:23:00,31.0,27.3,30.00,ENE,67,0.0,0.0,86,0.00,CLR,,0.00,0.0,WeatherDisplay:10.37,2013-02-24 03:23:00,
2013-02-23 21:28:00,30.9,27.5,30.00,ENE,67,0.0,0.0,87,0.00,CLR,,0.00,0.0,WeatherDisplay:10.37,2013-02-24 03:28:00,
2013-02-23 21:33:00,30.8,27.4,30.00,ENE,67,0.0,0.0,87,0.00,CLR,,0.00,0.0,WeatherDisplay:10.37,2013-02-24 03:33:00,
2013-02-23 21:38:00,30.6,27.5,30.00,ENE,67,0.0,0.0,88,0.00,CLR,,0.00,0.0,WeatherDisplay:10.37,2013-02-24 03:38:00,
2013-02-23 21:43:00,30.4,27.0,30.01,ENE,67,0.0,0.0,87,0.00,CLR,,0.00,0.0,WeatherDisplay:10.37,2013-02-24 03:43:00,
2013-02-23 21:48:00,30.4,27.0,30.01,ENE,67,0.0,0.0,87,0.00,CLR,,0.00,0.0,WeatherDisplay:10.37,2013-02-24 03:48:00,
2013-02-23 21:53:00,30.4,27.0,30.01,ENE,67,0.0,0.0,87,0.00,CLR,,0.00,0.0,WeatherDisplay:10.37,2013-02-24 03:53:00,
2013-02-23 21:58:00,30.5,27.1,30.00,ENE,67,0.0,0.0,87,0.00,CLR,,0.00,0.0,WeatherDisplay:10.37,2013-02-24 03:58:00,
2013-02-23 22:03:00,30.3,26.9,30.01,ENE,67,0.0,0.0,87,0.00,CLR,,0.00,0.0,WeatherDisplay:10.37,2013-02-24 04:03:00,
2013-02-23 22:08:00,30.0,26.6,30.01,ENE,67,0.0,0.0,87,0.00,CLR,,0.00,0.0,WeatherDisplay:10.37,2013-02-24 04:08:00,
2013-02-23 22:13:00,29.7,26.6,30.01,ENE,67,0.0,0.0,88,0.00,CLR,,0.00,0.0,WeatherDisplay:10.37,2013-02-24 04:13:00,
2013-02-23 22:18:00,29.7,26.6,30.00,ENE,67,0.0,0.0,88,0.00,CLR,,0.00,0.0,WeatherDisplay:10.37,2013-02-24 04:18:00,
2013-02-23 22:23:00,29.6,26.5,30.00,ENE,67,0.0,0.0,88,0.00,CLR,,0.00,0.0,WeatherDisplay:10.37,2013-02-24 04:23:00,
2013-02-23 22:28:00,29.5,26.7,30.00,ENE,67,0.0,0.0,89,0.00,CLR,,0.00,0.0,WeatherDisplay:10.37,2013-02-24 04:28:00,
2013-02-23 22:33:00,29.4,26.6,30.00,ENE,67,0.0,0.0,89,0.00,CLR,,0.00,0.0,WeatherDisplay:10.37,2013-02-24 04:33:00,
2013-02-23 22:38:00,29.2,26.4,30.00,ENE,67,0.0,0.0,89,0.00,CLR,,0.00,0.0,WeatherDisplay:10.37,2013-02-24 04:38:00,
2013-02-23 22:43:00,29.2,26.4,30.00,ENE,67,0.0,0.0,89,0.00,CLR,,0.00,0.0,WeatherDisplay:10.37,2013-02-24 04:43:00,
2013-02-23 22:48:00,29.1,26.3,30.00,ENE,67,0.0,0.0,89,0.00,CLR,,0.00,0.0,WeatherDisplay:10.37,2013-02-24 04:48:00,
2013-02-23 22:53:00,29.0,26.2,30.00,ENE,67,0.0,0.0,89,0.00,CLR,,0.00,0.0,WeatherDisplay:10.37,2013-02-24 04:53:00,
2013-02-23 22:58:00,28.8,26.0,30.00,ENE,67,0.0,0.0,89,0.00,CLR,,0.00,0.0,WeatherDisplay:10.37,2013-02-24 04:58:00,
2013-02-23 23:00:00,28.8,26.0,30.00,ENE,67,0.0,0.0,89,0.00,CLR,,0.00,0.0,WeatherDisplay:10.37,2013-02-24 05:00:00,
2013-02-23 23:01:00,28.7,25.9,30.00,ENE,67,0.0,0.0,89,0.00,CLR,,0.00,0.0,WeatherDisplay:10.37,2013-02-24 05:01:00,
2013-02-23 23:06:00,28.7,25.9,30.00,ENE,67,0.0,0.0,89,0.00,CLR,,0.00,0.0,WeatherDisplay:10.37,2013-02-24 05:06:00,
2013-02-23 23:11:00,28.5,25.7,30.00,ENE,67,0.0,0.0,89,0.00,CLR,,0.00,0.0,WeatherDisplay:10.37,2013-02-24 05:11:00,
2013-02-23 23:16:00,28.6,25.8,30.00,ENE,67,0.0,0.0,89,0.00,CLR,,0.00,0.0,WeatherDisplay:10.37,2013-02-24 05:16:00,
2013-02-23 23:21:00,28.5,25.9,29.99,ENE,67,0.0,0.0,90,0.00,CLR,,0.00,0.0,WeatherDisplay:10.37,2013-02-24 05:21:00,
2013-02-23 23:26:00,28.6,26.0,29.99,ENE,67,0.0,0.0,90,0.00,CLR,,0.00,0.0,WeatherDisplay:10.37,2013-02-24 05:26:00,
2013-02-23 23:31:00,28.7,26.1,29.99,SSE,147,0.0,0.0,90,0.00,CLR,,0.00,0.0,WeatherDisplay:10.37,2013-02-24 05:31:00,
2013-02-23 23:36:00,28.9,26.3,29.99,SSE,147,0.0,0.0,90,0.00,CLR,,0.00,0.0,WeatherDisplay:10.37,2013-02-24 05:36:00,
2013-02-23 23:41:00,28.9,26.3,30.00,SSE,147,0.0,0.0,90,0.00,CLR,,0.00,0.0,WeatherDisplay:10.37,2013-02-24 05:41:00,
2013-02-23 23:46:00,28.9,26.3,30.00,SSE,147,0.0,0.0,90,0.00,CLR,,0.00,0.0,WeatherDisplay:10.37,2013-02-24 05:46:00,
2013-02-23 23:51:00,28.6,26.0,30.00,SSE,147,0.0,0.0,90,0.00,CLR,,0.00,0.0,WeatherDisplay:10.37,2013-02-24 05:51:00,
2013-02-23 23:56:00,28.5,25.9,30.00,SSE,147,0.0,0.0,90,0.00,CLR,,0.00,0.0,WeatherDisplay:10.37,2013-02-24 05:56:00,